Marchin, Belgium
Current Conditions -  °F | °C
As of 1:20 PM on Wednesday 26 Nov 2014 (Local Time) from EBLG Reporting Station
Haze Haze  
Wind Chill: 44°   Ceiling: 3000
Heat Index: 46°   Visibility: 3mi
Dew Point: 43°   Wind: 5mph
Humidity: 87%   Direction: 140°SE
Pressure: 29.88"   Gusts: NA
Location:  50.47°N, 5.24°E
Report Text: EBLG 261220Z 14004KT 5000 BR FEW018 BKN030 08/06 Q1012 TEMPO 4000 RADZ SCT008 BKN018
Loading
Personal Weather Stations






























Interactive Weather Map New forecast layout! Learn more

10-Day Weather Forecast

Advertisements
Track Severe Weather on mobile